PWSweather.com
Personal Weather Stations
Station Observations
CATICS
Catí, CatiES

CatíCatiES

Lat: 40.47, Lon: 0.02

Elevation: 2168

Station Type: Davis Vantage Pro2

http://catimeteo.jimdo.com/

Latest ConditionsUpdated 4:33:01 AM GMT+01:01 Monday, May 20, 2019
Currently Today's Max Today's Min Today's Average
Temperature 49.6°F9.8°C 51.3°F10.7°C 49.5°F9.7°C 50.3°F10.2°C
Dew Point 38.3°F3.5°C 39.7°F4.3°C 38.0°F3.3°C 38.9°F3.8°C
Winds 21.0 mph NW33.8 kmh NW 23.0 mph -37.0 kmh - - 18.5 mph 29.8 kmh
Wind Gusts 37.0 mph59.5 kmh 47.0 mph75.6 kmh - -
Humidity 65% 67% 61% 65%
Pressure 29.87 in1011.5 mb 29.91 in1012.9 mb 29.86 in1011.2 mb -
Hour Temp Dew Point Humidity Winds Wind Gusts Pressure Precip Precip Rate Daily Precip Total
04:33 AM 49.6°F9.8°C 38.3°F3.5°C 65% 21.0 mph NW33.8 kmh NW 37.0 mph59.5 kmh 29.87 in1011.5 mb 0.00 in0.0 mm 0.00 in0.0 mm 0.00 in0.0 mm
04:32 AM 49.6°F9.8°C 38.3°F3.5°C 65% 21.0 mph NW33.8 kmh NW 37.0 mph59.5 kmh 29.87 in1011.5 mb 0.00 in0.0 mm 0.00 in0.0 mm 0.00 in0.0 mm
04:31 AM 49.6°F9.8°C 38.3°F3.5°C 65% 21.0 mph NW33.8 kmh NW 37.0 mph59.5 kmh 29.86 in1011.2 mb 0.00 in0.0 mm 0.00 in0.0 mm 0.00 in0.0 mm
04:30 AM 49.6°F9.8°C 38.0°F3.3°C 64% 21.0 mph NW33.8 kmh NW 37.0 mph59.5 kmh 29.87 in1011.5 mb 0.00 in0.0 mm 0.00 in0.0 mm 0.00 in0.0 mm
04:29 AM 49.6°F9.8°C 38.3°F3.5°C 65% 20.0 mph NW32.2 kmh NW 37.0 mph59.5 kmh 29.87 in1011.5 mb 0.00 in0.0 mm 0.00 in0.0 mm 0.00 in0.0 mm
04:28 AM 49.8°F9.9°C 38.5°F3.6°C 65% 20.0 mph NW32.2 kmh NW 37.0 mph59.5 kmh 29.87 in1011.5 mb 0.00 in0.0 mm 0.00 in0.0 mm 0.00 in0.0 mm
04:27 AM 49.6°F9.8°C 38.3°F3.5°C 65% 19.0 mph NW30.6 kmh NW 37.0 mph59.5 kmh 29.87 in1011.5 mb 0.00 in0.0 mm 0.00 in0.0 mm 0.00 in0.0 mm
04:26 AM 49.6°F9.8°C 38.0°F3.3°C 64% 18.0 mph NW29.0 kmh NW 30.0 mph48.3 kmh 29.87 in1011.5 mb 0.00 in0.0 mm 0.00 in0.0 mm 0.00 in0.0 mm
04:25 AM 49.6°F9.8°C 38.7°F3.7°C 66% 17.0 mph NW27.4 kmh NW 30.0 mph48.3 kmh 29.87 in1011.5 mb 0.00 in0.0 mm 0.00 in0.0 mm 0.00 in0.0 mm
04:24 AM 49.6°F9.8°C 38.7°F3.7°C 66% 18.0 mph NW29.0 kmh NW 30.0 mph48.3 kmh 29.87 in1011.5 mb 0.00 in0.0 mm 0.00 in0.0 mm 0.00 in0.0 mm
04:23 AM 49.6°F9.8°C 38.3°F3.5°C 65% 18.0 mph NW29.0 kmh NW 30.0 mph48.3 kmh 29.87 in1011.5 mb 0.00 in0.0 mm 0.00 in0.0 mm 0.00 in0.0 mm
04:22 AM 49.6°F9.8°C 38.3°F3.5°C 65% 18.0 mph NW29.0 kmh NW 33.0 mph53.1 kmh 29.87 in1011.5 mb 0.00 in0.0 mm 0.00 in0.0 mm 0.00 in0.0 mm
04:21 AM 49.6°F9.8°C 38.3°F3.5°C 65% 19.0 mph NW30.6 kmh NW 34.0 mph54.7 kmh 29.87 in1011.5 mb 0.00 in0.0 mm 0.00 in0.0 mm 0.00 in0.0 mm
04:20 AM 49.6°F9.8°C 38.3°F3.5°C 65% 19.0 mph NW30.6 kmh NW 34.0 mph54.7 kmh 29.87 in1011.5 mb 0.00 in0.0 mm 0.00 in0.0 mm 0.00 in0.0 mm
04:19 AM 49.6°F9.8°C 38.7°F3.7°C 66% 19.0 mph NW30.6 kmh NW 34.0 mph54.7 kmh 29.87 in1011.5 mb 0.00 in0.0 mm 0.00 in0.0 mm 0.00 in0.0 mm
04:18 AM 49.6°F9.8°C 38.7°F3.7°C 66% 19.0 mph NW30.6 kmh NW 34.0 mph54.7 kmh 29.87 in1011.5 mb 0.00 in0.0 mm 0.00 in0.0 mm 0.00 in0.0 mm
04:17 AM 49.8°F9.9°C 38.9°F3.8°C 66% 21.0 mph NW33.8 kmh NW 43.0 mph69.2 kmh 29.87 in1011.5 mb 0.00 in0.0 mm 0.00 in0.0 mm 0.00 in0.0 mm
04:16 AM 49.8°F9.9°C 38.5°F3.6°C 65% 21.0 mph NW33.8 kmh NW 43.0 mph69.2 kmh 29.87 in1011.5 mb 0.00 in0.0 mm 0.00 in0.0 mm 0.00 in0.0 mm
04:15 AM 49.8°F9.9°C 38.5°F3.6°C 65% 21.0 mph NW33.8 kmh NW 43.0 mph69.2 kmh 29.87 in1011.5 mb 0.00 in0.0 mm 0.00 in0.0 mm 0.00 in0.0 mm
04:14 AM 49.8°F9.9°C 38.5°F3.6°C 65% 21.0 mph NW33.8 kmh NW 43.0 mph69.2 kmh 29.87 in1011.5 mb 0.00 in0.0 mm 0.00 in0.0 mm 0.00 in0.0 mm
04:13 AM 49.8°F9.9°C 38.5°F3.6°C 65% 21.0 mph NW33.8 kmh NW 43.0 mph69.2 kmh 29.87 in1011.5 mb 0.00 in0.0 mm 0.00 in0.0 mm 0.00 in0.0 mm
04:12 AM 49.8°F9.9°C 38.5°F3.6°C 65% 21.0 mph NW33.8 kmh NW 43.0 mph69.2 kmh 29.88 in1011.9 mb 0.00 in0.0 mm 0.00 in0.0 mm 0.00 in0.0 mm
04:11 AM 49.8°F9.9°C 38.5°F3.6°C 65% 21.0 mph NW33.8 kmh NW 43.0 mph69.2 kmh 29.87 in1011.5 mb 0.00 in0.0 mm 0.00 in0.0 mm 0.00 in0.0 mm
04:10 AM 49.8°F9.9°C 38.5°F3.6°C 65% 21.0 mph NW33.8 kmh NW 43.0 mph69.2 kmh 29.87 in1011.5 mb 0.00 in0.0 mm 0.00 in0.0 mm 0.00 in0.0 mm
04:09 AM 49.8°F9.9°C 38.5°F3.6°C 65% 21.0 mph NW33.8 kmh NW 43.0 mph69.2 kmh 29.87 in1011.5 mb 0.00 in0.0 mm 0.00 in0.0 mm 0.00 in0.0 mm
04:08 AM 49.6°F9.8°C 38.7°F3.7°C 66% 21.0 mph NW33.8 kmh NW 43.0 mph69.2 kmh 29.87 in1011.5 mb 0.00 in0.0 mm 0.00 in0.0 mm 0.00 in0.0 mm
04:07 AM 49.6°F9.8°C 38.7°F3.7°C 66% 20.0 mph NW32.2 kmh NW 34.0 mph54.7 kmh 29.87 in1011.5 mb 0.00 in0.0 mm 0.00 in0.0 mm 0.00 in0.0 mm
04:06 AM 49.6°F9.8°C 38.7°F3.7°C 66% 20.0 mph NW32.2 kmh NW 34.0 mph54.7 kmh 29.87 in1011.5 mb 0.00 in0.0 mm 0.00 in0.0 mm 0.00 in0.0 mm
04:05 AM 49.6°F9.8°C 38.7°F3.7°C 66% 21.0 mph NW33.8 kmh NW 34.0 mph54.7 kmh 29.87 in1011.5 mb 0.00 in0.0 mm 0.00 in0.0 mm 0.00 in0.0 mm
04:04 AM 49.6°F9.8°C 38.7°F3.7°C 66% 20.0 mph NW32.2 kmh NW 34.0 mph54.7 kmh 29.87 in1011.5 mb 0.00 in0.0 mm 0.00 in0.0 mm 0.00 in0.0 mm
04:03 AM 49.6°F9.8°C 38.7°F3.7°C 66% 20.0 mph NW32.2 kmh NW 35.0 mph56.3 kmh 29.87 in1011.5 mb 0.00 in0.0 mm 0.00 in0.0 mm 0.00 in0.0 mm
04:02 AM 49.6°F9.8°C 38.7°F3.7°C 66% 20.0 mph NW32.2 kmh NW 35.0 mph56.3 kmh 29.87 in1011.5 mb 0.00 in0.0 mm 0.00 in0.0 mm 0.00 in0.0 mm
04:01 AM 49.6°F9.8°C 38.7°F3.7°C 66% 19.0 mph NW30.6 kmh NW 35.0 mph56.3 kmh 29.87 in1011.5 mb 0.00 in0.0 mm 0.00 in0.0 mm 0.00 in0.0 mm
04:00 AM 49.6°F9.8°C 38.7°F3.7°C 66% 20.0 mph NW32.2 kmh NW 35.0 mph56.3 kmh 29.87 in1011.5 mb 0.00 in0.0 mm 0.00 in0.0 mm 0.00 in0.0 mm
03:59 AM 49.6°F9.8°C 38.7°F3.7°C 66% 20.0 mph NW32.2 kmh NW 35.0 mph56.3 kmh 29.88 in1011.9 mb 0.00 in0.0 mm 0.00 in0.0 mm 0.00 in0.0 mm
03:58 AM 49.6°F9.8°C 38.7°F3.7°C 66% 20.0 mph NW32.2 kmh NW 35.0 mph56.3 kmh 29.87 in1011.5 mb 0.00 in0.0 mm 0.00 in0.0 mm 0.00 in0.0 mm
03:57 AM 49.5°F9.7°C 38.6°F3.7°C 66% 19.0 mph NW30.6 kmh NW 35.0 mph56.3 kmh 29.87 in1011.5 mb 0.00 in0.0 mm 0.00 in0.0 mm 0.00 in0.0 mm
03:56 AM 49.5°F9.7°C 38.6°F3.7°C 66% 19.0 mph NW30.6 kmh NW 35.0 mph56.3 kmh 29.87 in1011.5 mb 0.00 in0.0 mm 0.00 in0.0 mm 0.00 in0.0 mm
03:55 AM 49.6°F9.8°C 38.7°F3.7°C 66% 18.0 mph NW29.0 kmh NW 35.0 mph56.3 kmh 29.88 in1011.9 mb 0.00 in0.0 mm 0.00 in0.0 mm 0.00 in0.0 mm
03:54 AM 49.6°F9.8°C 38.7°F3.7°C 66% 18.0 mph NW29.0 kmh NW 35.0 mph56.3 kmh 29.87 in1011.5 mb 0.00 in0.0 mm 0.00 in0.0 mm 0.00 in0.0 mm
03:53 AM 49.6°F9.8°C 38.7°F3.7°C 66% 18.0 mph NW29.0 kmh NW 30.0 mph48.3 kmh 29.88 in1011.9 mb 0.00 in0.0 mm 0.00 in0.0 mm 0.00 in0.0 mm
03:52 AM 49.6°F9.8°C 38.7°F3.7°C 66% 18.0 mph NW29.0 kmh NW 30.0 mph48.3 kmh 29.88 in1011.9 mb 0.00 in0.0 mm 0.00 in0.0 mm 0.00 in0.0 mm
03:51 AM 49.6°F9.8°C 38.7°F3.7°C 66% 18.0 mph NW29.0 kmh NW 30.0 mph48.3 kmh 29.88 in1011.9 mb 0.00 in0.0 mm 0.00 in0.0 mm 0.00 in0.0 mm
03:50 AM 49.5°F9.7°C 38.6°F3.7°C 66% 18.0 mph NW29.0 kmh NW 30.0 mph48.3 kmh 29.88 in1011.9 mb 0.00 in0.0 mm 0.00 in0.0 mm 0.00 in0.0 mm
03:49 AM 49.5°F9.7°C 38.6°F3.7°C 66% 17.0 mph NW27.4 kmh NW 30.0 mph48.3 kmh 29.88 in1011.9 mb 0.00 in0.0 mm 0.00 in0.0 mm 0.00 in0.0 mm
03:48 AM 49.5°F9.7°C 38.6°F3.7°C 66% 17.0 mph NW27.4 kmh NW 30.0 mph48.3 kmh 29.88 in1011.9 mb 0.00 in0.0 mm 0.00 in0.0 mm 0.00 in0.0 mm
03:47 AM 49.5°F9.7°C 38.6°F3.7°C 66% 18.0 mph NW29.0 kmh NW 30.0 mph48.3 kmh 29.87 in1011.5 mb 0.00 in0.0 mm 0.00 in0.0 mm 0.00 in0.0 mm
03:46 AM 49.5°F9.7°C 38.6°F3.7°C 66% 17.0 mph NW27.4 kmh NW 28.0 mph45.1 kmh 29.88 in1011.9 mb 0.00 in0.0 mm 0.00 in0.0 mm 0.00 in0.0 mm
03:45 AM 49.5°F9.7°C 38.6°F3.7°C 66% 18.0 mph NW29.0 kmh NW 28.0 mph45.1 kmh 29.88 in1011.9 mb 0.00 in0.0 mm 0.00 in0.0 mm 0.00 in0.0 mm
03:44 AM 49.5°F9.7°C 39.0°F3.9°C 67% 18.0 mph NW29.0 kmh NW 28.0 mph45.1 kmh 29.88 in1011.9 mb 0.00 in0.0 mm 0.00 in0.0 mm 0.00 in0.0 mm
03:43 AM 49.5°F9.7°C 38.6°F3.7°C 66% 18.0 mph NW29.0 kmh NW 30.0 mph48.3 kmh 29.88 in1011.9 mb 0.00 in0.0 mm 0.00 in0.0 mm 0.00 in0.0 mm
03:42 AM 49.6°F9.8°C 38.7°F3.7°C 66% 19.0 mph NW30.6 kmh NW 30.0 mph48.3 kmh 29.88 in1011.9 mb 0.00 in0.0 mm 0.00 in0.0 mm 0.00 in0.0 mm
03:41 AM 49.6°F9.8°C 38.7°F3.7°C 66% 19.0 mph NW30.6 kmh NW 30.0 mph48.3 kmh 29.88 in1011.9 mb 0.00 in0.0 mm 0.00 in0.0 mm 0.00 in0.0 mm
03:40 AM 49.6°F9.8°C 38.7°F3.7°C 66% 18.0 mph NW29.0 kmh NW 30.0 mph48.3 kmh 29.88 in1011.9 mb 0.00 in0.0 mm 0.00 in0.0 mm 0.00 in0.0 mm
03:39 AM 49.6°F9.8°C 38.7°F3.7°C 66% 19.0 mph NW30.6 kmh NW 34.0 mph54.7 kmh 29.88 in1011.9 mb 0.00 in0.0 mm 0.00 in0.0 mm 0.00 in0.0 mm
03:38 AM 49.6°F9.8°C 38.7°F3.7°C 66% 19.0 mph NW30.6 kmh NW 34.0 mph54.7 kmh 29.88 in1011.9 mb 0.00 in0.0 mm 0.00 in0.0 mm 0.00 in0.0 mm
03:37 AM 49.6°F9.8°C 38.7°F3.7°C 66% 19.0 mph NW30.6 kmh NW 35.0 mph56.3 kmh 29.88 in1011.9 mb 0.00 in0.0 mm 0.00 in0.0 mm 0.00 in0.0 mm
03:36 AM 49.6°F9.8°C 38.7°F3.7°C 66% 19.0 mph NW30.6 kmh NW 35.0 mph56.3 kmh 29.88 in1011.9 mb 0.00 in0.0 mm 0.00 in0.0 mm 0.00 in0.0 mm
03:35 AM 49.6°F9.8°C 38.7°F3.7°C 66% 19.0 mph NW30.6 kmh NW 35.0 mph56.3 kmh 29.88 in1011.9 mb 0.00 in0.0 mm 0.00 in0.0 mm 0.00 in0.0 mm
03:34 AM 49.6°F9.8°C 38.7°F3.7°C 66% 19.0 mph NW30.6 kmh NW 35.0 mph56.3 kmh 29.88 in1011.9 mb 0.00 in0.0 mm 0.00 in0.0 mm 0.00 in0.0 mm
03:33 AM 49.8°F9.9°C 38.9°F3.8°C 66% 18.0 mph NW29.0 kmh NW 35.0 mph56.3 kmh 29.88 in1011.9 mb 0.00 in0.0 mm 0.00 in0.0 mm 0.00 in0.0 mm
03:32 AM 49.8°F9.9°C 38.9°F3.8°C 66% 18.0 mph NW29.0 kmh NW 35.0 mph56.3 kmh 29.88 in1011.9 mb 0.00 in0.0 mm 0.00 in0.0 mm 0.00 in0.0 mm
03:31 AM 49.8°F9.9°C 38.9°F3.8°C 66% 18.0 mph NW29.0 kmh NW 35.0 mph56.3 kmh 29.88 in1011.9 mb 0.00 in0.0 mm 0.00 in0.0 mm 0.00 in0.0 mm
03:30 AM 49.6°F9.8°C 38.7°F3.7°C 66% 19.0 mph NW30.6 kmh NW 35.0 mph56.3 kmh 29.88 in1011.9 mb 0.00 in0.0 mm 0.00 in0.0 mm 0.00 in0.0 mm
03:29 AM 49.6°F9.8°C 38.7°F3.7°C 66% 19.0 mph NW30.6 kmh NW 35.0 mph56.3 kmh 29.87 in1011.5 mb 0.00 in0.0 mm 0.00 in0.0 mm 0.00 in0.0 mm
03:28 AM 49.6°F9.8°C 38.7°F3.7°C 66% 18.0 mph NW29.0 kmh NW 35.0 mph56.3 kmh 29.88 in1011.9 mb 0.00 in0.0 mm 0.00 in0.0 mm 0.00 in0.0 mm
03:27 AM 49.6°F9.8°C 38.7°F3.7°C 66% 18.0 mph NW29.0 kmh NW 29.0 mph46.7 kmh 29.88 in1011.9 mb 0.00 in0.0 mm 0.00 in0.0 mm 0.00 in0.0 mm
03:26 AM 49.6°F9.8°C 38.7°F3.7°C 66% 18.0 mph NW29.0 kmh NW 29.0 mph46.7 kmh 29.88 in1011.9 mb 0.00 in0.0 mm 0.00 in0.0 mm 0.00 in0.0 mm
03:25 AM 49.6°F9.8°C 38.7°F3.7°C 66% 17.0 mph NW27.4 kmh NW 29.0 mph46.7 kmh 29.88 in1011.9 mb 0.00 in0.0 mm 0.00 in0.0 mm 0.00 in0.0 mm
03:24 AM 49.6°F9.8°C 38.7°F3.7°C 66% 18.0 mph NW29.0 kmh NW 29.0 mph46.7 kmh 29.88 in1011.9 mb 0.00 in0.0 mm 0.00 in0.0 mm 0.00 in0.0 mm
03:23 AM 49.6°F9.8°C 38.7°F3.7°C 66% 18.0 mph NW29.0 kmh NW 29.0 mph46.7 kmh 29.88 in1011.9 mb 0.00 in0.0 mm 0.00 in0.0 mm 0.00 in0.0 mm
03:22 AM 49.8°F9.9°C 38.9°F3.8°C 66% 17.0 mph NW27.4 kmh NW 29.0 mph46.7 kmh 29.88 in1011.9 mb 0.00 in0.0 mm 0.00 in0.0 mm 0.00 in0.0 mm
03:21 AM 49.8°F9.9°C 38.9°F3.8°C 66% 17.0 mph NW27.4 kmh NW 29.0 mph46.7 kmh 29.88 in1011.9 mb 0.00 in0.0 mm 0.00 in0.0 mm 0.00 in0.0 mm
03:20 AM 49.8°F9.9°C 38.9°F3.8°C 66% 17.0 mph NW27.4 kmh NW 32.0 mph51.5 kmh 29.88 in1011.9 mb 0.00 in0.0 mm 0.00 in0.0 mm 0.00 in0.0 mm
03:19 AM 49.8°F9.9°C 38.9°F3.8°C 66% 17.0 mph NW27.4 kmh NW 32.0 mph51.5 kmh 29.88 in1011.9 mb 0.00 in0.0 mm 0.00 in0.0 mm 0.00 in0.0 mm
03:18 AM 49.8°F9.9°C 38.9°F3.8°C 66% 17.0 mph NW27.4 kmh NW 32.0 mph51.5 kmh 29.88 in1011.9 mb 0.00 in0.0 mm 0.00 in0.0 mm 0.00 in0.0 mm
03:17 AM 49.8°F9.9°C 38.9°F3.8°C 66% 17.0 mph NW27.4 kmh NW 32.0 mph51.5 kmh 29.88 in1011.9 mb 0.00 in0.0 mm 0.00 in0.0 mm 0.00 in0.0 mm
03:16 AM 49.8°F9.9°C 38.9°F3.8°C 66% 17.0 mph NW27.4 kmh NW 32.0 mph51.5 kmh 29.88 in1011.9 mb 0.00 in0.0 mm 0.00 in0.0 mm 0.00 in0.0 mm
03:15 AM 49.8°F9.9°C 38.9°F3.8°C 66% 17.0 mph NW27.4 kmh NW 32.0 mph51.5 kmh 29.88 in1011.9 mb 0.00 in0.0 mm 0.00 in0.0 mm 0.00 in0.0 mm
03:14 AM 50.0°F10.0°C 39.1°F3.9°C 66% 16.0 mph NW25.7 kmh NW 32.0 mph51.5 kmh 29.88 in1011.9 mb 0.00 in0.0 mm 0.00 in0.0 mm 0.00 in0.0 mm
03:13 AM 50.0°F10.0°C 39.1°F3.9°C 66% 16.0 mph NW25.7 kmh NW 32.0 mph51.5 kmh 29.88 in1011.9 mb 0.00 in0.0 mm 0.00 in0.0 mm 0.00 in0.0 mm
03:12 AM 50.2°F10.1°C 38.9°F3.8°C 65% 16.0 mph NW25.7 kmh NW 32.0 mph51.5 kmh 29.88 in1011.9 mb 0.00 in0.0 mm 0.00 in0.0 mm 0.00 in0.0 mm
03:11 AM 50.2°F10.1°C 38.9°F3.8°C 65% 16.0 mph NW25.7 kmh NW 32.0 mph51.5 kmh 29.88 in1011.9 mb 0.00 in0.0 mm 0.00 in0.0 mm 0.00 in0.0 mm
03:10 AM 50.2°F10.1°C 38.9°F3.8°C 65% 16.0 mph NW25.7 kmh NW 28.0 mph45.1 kmh 29.88 in1011.9 mb 0.00 in0.0 mm 0.00 in0.0 mm 0.00 in0.0 mm
03:09 AM 50.2°F10.1°C 38.9°F3.8°C 65% 16.0 mph NW25.7 kmh NW 28.0 mph45.1 kmh 29.88 in1011.9 mb 0.00 in0.0 mm 0.00 in0.0 mm 0.00 in0.0 mm
03:08 AM 50.2°F10.1°C 38.9°F3.8°C 65% 16.0 mph NW25.7 kmh NW 28.0 mph45.1 kmh 29.88 in1011.9 mb 0.00 in0.0 mm 0.00 in0.0 mm 0.00 in0.0 mm
03:07 AM 50.2°F10.1°C 39.3°F4.1°C 66% 16.0 mph NW25.7 kmh NW 28.0 mph45.1 kmh 29.88 in1011.9 mb 0.00 in0.0 mm 0.00 in0.0 mm 0.00 in0.0 mm
03:06 AM 50.2°F10.1°C 38.9°F3.8°C 65% 16.0 mph NW25.7 kmh NW 28.0 mph45.1 kmh 29.88 in1011.9 mb 0.00 in0.0 mm 0.00 in0.0 mm 0.00 in0.0 mm
03:05 AM 50.4°F10.2°C 39.0°F3.9°C 65% 17.0 mph NW27.4 kmh NW 29.0 mph46.7 kmh 29.88 in1011.9 mb 0.00 in0.0 mm 0.00 in0.0 mm 0.00 in0.0 mm
03:04 AM 50.4°F10.2°C 39.0°F3.9°C 65% 17.0 mph NW27.4 kmh NW 29.0 mph46.7 kmh 29.88 in1011.9 mb 0.00 in0.0 mm 0.00 in0.0 mm 0.00 in0.0 mm
03:03 AM 50.4°F10.2°C 39.0°F3.9°C 65% 18.0 mph NW29.0 kmh NW 33.0 mph53.1 kmh 29.88 in1011.9 mb 0.00 in0.0 mm 0.00 in0.0 mm 0.00 in0.0 mm
03:02 AM 50.4°F10.2°C 39.0°F3.9°C 65% 19.0 mph NW30.6 kmh NW 33.0 mph53.1 kmh 29.88 in1011.9 mb 0.00 in0.0 mm 0.00 in0.0 mm 0.00 in0.0 mm
03:01 AM 50.4°F10.2°C 39.0°F3.9°C 65% 19.0 mph NW30.6 kmh NW 33.0 mph53.1 kmh 29.88 in1011.9 mb 0.00 in0.0 mm 0.00 in0.0 mm 0.00 in0.0 mm
03:00 AM 50.4°F10.2°C 39.0°F3.9°C 65% 19.0 mph NW30.6 kmh NW 33.0 mph53.1 kmh 29.89 in1012.2 mb 0.00 in0.0 mm 0.00 in0.0 mm 0.00 in0.0 mm
02:59 AM 50.4°F10.2°C 39.0°F3.9°C 65% 19.0 mph NW30.6 kmh NW 33.0 mph53.1 kmh 29.88 in1011.9 mb 0.00 in0.0 mm 0.00 in0.0 mm 0.00 in0.0 mm
02:58 AM 50.4°F10.2°C 39.0°F3.9°C 65% 20.0 mph NW32.2 kmh NW 33.0 mph53.1 kmh 29.88 in1011.9 mb 0.00 in0.0 mm 0.00 in0.0 mm 0.00 in0.0 mm
02:57 AM 50.4°F10.2°C 39.0°F3.9°C 65% 20.0 mph NW32.2 kmh NW 35.0 mph56.3 kmh 29.88 in1011.9 mb 0.00 in0.0 mm 0.00 in0.0 mm 0.00 in0.0 mm
02:56 AM 50.5°F10.3°C 39.2°F4.0°C 65% 20.0 mph NW32.2 kmh NW 35.0 mph56.3 kmh 29.88 in1011.9 mb 0.00 in0.0 mm 0.00 in0.0 mm 0.00 in0.0 mm
02:55 AM 50.5°F10.3°C 39.2°F4.0°C 65% 20.0 mph NW32.2 kmh NW 35.0 mph56.3 kmh 29.88 in1011.9 mb 0.00 in0.0 mm 0.00 in0.0 mm 0.00 in0.0 mm
02:54 AM 50.5°F10.3°C 38.8°F3.8°C 64% 19.0 mph NW30.6 kmh NW 35.0 mph56.3 kmh 29.88 in1011.9 mb 0.00 in0.0 mm 0.00 in0.0 mm 0.00 in0.0 mm
02:53 AM 50.5°F10.3°C 39.2°F4.0°C 65% 19.0 mph NW30.6 kmh NW 35.0 mph56.3 kmh 29.88 in1011.9 mb 0.00 in0.0 mm 0.00 in0.0 mm 0.00 in0.0 mm
02:52 AM 50.5°F10.3°C 39.2°F4.0°C 65% 18.0 mph NW29.0 kmh NW 35.0 mph56.3 kmh 29.88 in1011.9 mb 0.00 in0.0 mm 0.00 in0.0 mm 0.00 in0.0 mm
02:51 AM 50.5°F10.3°C 39.2°F4.0°C 65% 18.0 mph NW29.0 kmh NW 35.0 mph56.3 kmh 29.88 in1011.9 mb 0.00 in0.0 mm 0.00 in0.0 mm 0.00 in0.0 mm
02:50 AM 50.5°F10.3°C 39.2°F4.0°C 65% 19.0 mph NW30.6 kmh NW 35.0 mph56.3 kmh 29.88 in1011.9 mb 0.00 in0.0 mm 0.00 in0.0 mm 0.00 in0.0 mm
02:49 AM 50.5°F10.3°C 39.2°F4.0°C 65% 18.0 mph NW29.0 kmh NW 35.0 mph56.3 kmh 29.88 in1011.9 mb 0.00 in0.0 mm 0.00 in0.0 mm 0.00 in0.0 mm
02:48 AM 50.5°F10.3°C 39.2°F4.0°C 65% 19.0 mph NW30.6 kmh NW 35.0 mph56.3 kmh 29.88 in1011.9 mb 0.00 in0.0 mm 0.00 in0.0 mm 0.00 in0.0 mm
02:47 AM 50.5°F10.3°C 39.2°F4.0°C 65% 18.0 mph NW29.0 kmh NW 32.0 mph51.5 kmh 29.89 in1012.2 mb 0.00 in0.0 mm 0.00 in0.0 mm 0.00 in0.0 mm
02:46 AM 50.5°F10.3°C 39.2°F4.0°C 65% 19.0 mph NW30.6 kmh NW 32.0 mph51.5 kmh 29.88 in1011.9 mb 0.00 in0.0 mm 0.00 in0.0 mm 0.00 in0.0 mm
02:45 AM 50.5°F10.3°C 39.2°F4.0°C 65% 19.0 mph NW30.6 kmh NW 32.0 mph51.5 kmh 29.88 in1011.9 mb 0.00 in0.0 mm 0.00 in0.0 mm 0.00 in0.0 mm
02:44 AM 50.5°F10.3°C 39.2°F4.0°C 65% 19.0 mph NW30.6 kmh NW 32.0 mph51.5 kmh 29.88 in1011.9 mb 0.00 in0.0 mm 0.00 in0.0 mm 0.00 in0.0 mm
02:43 AM 50.5°F10.3°C 39.2°F4.0°C 65% 19.0 mph NW30.6 kmh NW 32.0 mph51.5 kmh 29.88 in1011.9 mb 0.00 in0.0 mm 0.00 in0.0 mm 0.00 in0.0 mm
02:42 AM 50.5°F10.3°C 39.2°F4.0°C 65% 19.0 mph NW30.6 kmh NW 32.0 mph51.5 kmh 29.88 in1011.9 mb 0.00 in0.0 mm 0.00 in0.0 mm 0.00 in0.0 mm
02:41 AM 50.4°F10.2°C 39.0°F3.9°C 65% 19.0 mph NW30.6 kmh NW 32.0 mph51.5 kmh 29.88 in1011.9 mb 0.00 in0.0 mm 0.00 in0.0 mm 0.00 in0.0 mm
02:40 AM 50.4°F10.2°C 39.0°F3.9°C 65% 19.0 mph NW30.6 kmh NW 32.0 mph51.5 kmh 29.88 in1011.9 mb 0.00 in0.0 mm 0.00 in0.0 mm 0.00 in0.0 mm
02:39 AM 50.4°F10.2°C 39.0°F3.9°C 65% 19.0 mph NW30.6 kmh NW 32.0 mph51.5 kmh 29.88 in1011.9 mb 0.00 in0.0 mm 0.00 in0.0 mm 0.00 in0.0 mm
02:38 AM 50.2°F10.1°C 39.3°F4.1°C 66% 18.0 mph NW29.0 kmh NW 28.0 mph45.1 kmh 29.89 in1012.2 mb 0.00 in0.0 mm 0.00 in0.0 mm 0.00 in0.0 mm
02:37 AM 50.2°F10.1°C 39.3°F4.1°C 66% 18.0 mph NW29.0 kmh NW 28.0 mph45.1 kmh 29.88 in1011.9 mb 0.00 in0.0 mm 0.00 in0.0 mm 0.00 in0.0 mm
02:36 AM 50.2°F10.1°C 39.3°F4.1°C 66% 18.0 mph NW29.0 kmh NW 28.0 mph45.1 kmh 29.88 in1011.9 mb 0.00 in0.0 mm 0.00 in0.0 mm 0.00 in0.0 mm
02:35 AM 50.2°F10.1°C 39.3°F4.1°C 66% 17.0 mph NW27.4 kmh NW 28.0 mph45.1 kmh 29.89 in1012.2 mb 0.00 in0.0 mm 0.00 in0.0 mm 0.00 in0.0 mm
02:34 AM 50.2°F10.1°C 39.3°F4.1°C 66% 17.0 mph NW27.4 kmh NW 28.0 mph45.1 kmh 29.88 in1011.9 mb 0.00 in0.0 mm 0.00 in0.0 mm 0.00 in0.0 mm
02:33 AM 50.2°F10.1°C 39.3°F4.1°C 66% 17.0 mph NW27.4 kmh NW 28.0 mph45.1 kmh 29.88 in1011.9 mb 0.00 in0.0 mm 0.00 in0.0 mm 0.00 in0.0 mm
02:32 AM 50.2°F10.1°C 39.3°F4.1°C 66% 17.0 mph NW27.4 kmh NW 28.0 mph45.1 kmh 29.88 in1011.9 mb 0.00 in0.0 mm 0.00 in0.0 mm 0.00 in0.0 mm
02:31 AM 50.2°F10.1°C 39.3°F4.1°C 66% 16.0 mph NW25.7 kmh NW 28.0 mph45.1 kmh 29.88 in1011.9 mb 0.00 in0.0 mm 0.00 in0.0 mm 0.00 in0.0 mm
02:30 AM 50.2°F10.1°C 39.3°F4.1°C 66% 17.0 mph NW27.4 kmh NW 29.0 mph46.7 kmh 29.88 in1011.9 mb 0.00 in0.0 mm 0.00 in0.0 mm 0.00 in0.0 mm
02:29 AM 50.2°F10.1°C 39.3°F4.1°C 66% 17.0 mph NW27.4 kmh NW 30.0 mph48.3 kmh 29.88 in1011.9 mb 0.00 in0.0 mm 0.00 in0.0 mm 0.00 in0.0 mm
02:28 AM 50.2°F10.1°C 39.3°F4.1°C 66% 17.0 mph NW27.4 kmh NW 30.0 mph48.3 kmh 29.88 in1011.9 mb 0.00 in0.0 mm 0.00 in0.0 mm 0.00 in0.0 mm
02:27 AM 50.2°F10.1°C 39.3°F4.1°C 66% 17.0 mph NW27.4 kmh NW 30.0 mph48.3 kmh 29.88 in1011.9 mb 0.00 in0.0 mm 0.00 in0.0 mm 0.00 in0.0 mm
02:26 AM 50.2°F10.1°C 39.3°F4.1°C 66% 17.0 mph NW27.4 kmh NW 30.0 mph48.3 kmh 29.88 in1011.9 mb 0.00 in0.0 mm 0.00 in0.0 mm 0.00 in0.0 mm
02:25 AM 50.2°F10.1°C 39.3°F4.1°C 66% 17.0 mph NW27.4 kmh NW 30.0 mph48.3 kmh 29.88 in1011.9 mb 0.00 in0.0 mm 0.00 in0.0 mm 0.00 in0.0 mm
02:24 AM 50.2°F10.1°C 39.3°F4.1°C 66% 17.0 mph NW27.4 kmh NW 30.0 mph48.3 kmh 29.88 in1011.9 mb 0.00 in0.0 mm 0.00 in0.0 mm 0.00 in0.0 mm
02:23 AM 50.2°F10.1°C 39.3°F4.1°C 66% 18.0 mph NW29.0 kmh NW 30.0 mph48.3 kmh 29.88 in1011.9 mb 0.00 in0.0 mm 0.00 in0.0 mm 0.00 in0.0 mm
02:22 AM 50.2°F10.1°C 39.3°F4.1°C 66% 18.0 mph NW29.0 kmh NW 30.0 mph48.3 kmh 29.89 in1012.2 mb 0.00 in0.0 mm 0.00 in0.0 mm 0.00 in0.0 mm
02:21 AM 50.2°F10.1°C 39.3°F4.1°C 66% 18.0 mph NW29.0 kmh NW 30.0 mph48.3 kmh 29.89 in1012.2 mb 0.00 in0.0 mm 0.00 in0.0 mm 0.00 in0.0 mm
02:20 AM 50.0°F10.0°C 39.1°F3.9°C 66% 17.0 mph NW27.4 kmh NW 30.0 mph48.3 kmh 29.89 in1012.2 mb 0.00 in0.0 mm 0.00 in0.0 mm 0.00 in0.0 mm
02:19 AM 50.2°F10.1°C 39.3°F4.1°C 66% 17.0 mph NW27.4 kmh NW 30.0 mph48.3 kmh 29.89 in1012.2 mb 0.00 in0.0 mm 0.00 in0.0 mm 0.00 in0.0 mm
02:18 AM 50.2°F10.1°C 39.3°F4.1°C 66% 18.0 mph NW29.0 kmh NW 30.0 mph48.3 kmh 29.88 in1011.9 mb 0.00 in0.0 mm 0.00 in0.0 mm 0.00 in0.0 mm
02:17 AM 50.2°F10.1°C 39.3°F4.1°C 66% 18.0 mph NW29.0 kmh NW 30.0 mph48.3 kmh 29.88 in1011.9 mb 0.00 in0.0 mm 0.00 in0.0 mm 0.00 in0.0 mm
02:16 AM 50.2°F10.1°C 38.9°F3.8°C 65% 17.0 mph NW27.4 kmh NW 30.0 mph48.3 kmh 29.88 in1011.9 mb 0.00 in0.0 mm 0.00 in0.0 mm 0.00 in0.0 mm
02:15 AM 50.2°F10.1°C 38.9°F3.8°C 65% 17.0 mph NW27.4 kmh NW 30.0 mph48.3 kmh 29.88 in1011.9 mb 0.00 in0.0 mm 0.00 in0.0 mm 0.00 in0.0 mm
02:14 AM 50.2°F10.1°C 38.9°F3.8°C 65% 17.0 mph NW27.4 kmh NW 30.0 mph48.3 kmh 29.88 in1011.9 mb 0.00 in0.0 mm 0.00 in0.0 mm 0.00 in0.0 mm
02:13 AM 50.2°F10.1°C 38.9°F3.8°C 65% 17.0 mph NW27.4 kmh NW 30.0 mph48.3 kmh 29.88 in1011.9 mb 0.00 in0.0 mm 0.00 in0.0 mm 0.00 in0.0 mm
02:12 AM 50.2°F10.1°C 38.9°F3.8°C 65% 17.0 mph NW27.4 kmh NW 30.0 mph48.3 kmh 29.88 in1011.9 mb 0.00 in0.0 mm 0.00 in0.0 mm 0.00 in0.0 mm
02:11 AM 50.2°F10.1°C 38.9°F3.8°C 65% 17.0 mph NW27.4 kmh NW 30.0 mph48.3 kmh 29.88 in1011.9 mb 0.00 in0.0 mm 0.00 in0.0 mm 0.00 in0.0 mm
02:10 AM 50.2°F10.1°C 38.9°F3.8°C 65% 17.0 mph NW27.4 kmh NW 30.0 mph48.3 kmh 29.88 in1011.9 mb 0.00 in0.0 mm 0.00 in0.0 mm 0.00 in0.0 mm
02:09 AM 50.2°F10.1°C 39.3°F4.1°C 66% 16.0 mph NW25.7 kmh NW 28.0 mph45.1 kmh 29.88 in1011.9 mb 0.00 in0.0 mm 0.00 in0.0 mm 0.00 in0.0 mm
02:08 AM 50.2°F10.1°C 38.9°F3.8°C 65% 16.0 mph NW25.7 kmh NW 26.0 mph41.8 kmh 29.88 in1011.9 mb 0.00 in0.0 mm 0.00 in0.0 mm 0.00 in0.0 mm
02:07 AM 50.2°F10.1°C 38.9°F3.8°C 65% 16.0 mph NW25.7 kmh NW 26.0 mph41.8 kmh 29.88 in1011.9 mb 0.00 in0.0 mm 0.00 in0.0 mm 0.00 in0.0 mm
02:06 AM 50.0°F10.0°C 38.7°F3.7°C 65% 17.0 mph NW27.4 kmh NW 26.0 mph41.8 kmh 29.88 in1011.9 mb 0.00 in0.0 mm 0.00 in0.0 mm 0.00 in0.0 mm
02:05 AM 50.2°F10.1°C 38.9°F3.8°C 65% 16.0 mph NW25.7 kmh NW 26.0 mph41.8 kmh 29.88 in1011.9 mb 0.00 in0.0 mm 0.00 in0.0 mm 0.00 in0.0 mm
02:04 AM 50.0°F10.0°C 39.1°F3.9°C 66% 17.0 mph NW27.4 kmh NW 27.0 mph43.5 kmh 29.88 in1011.9 mb 0.00 in0.0 mm 0.00 in0.0 mm 0.00 in0.0 mm
02:03 AM 50.0°F10.0°C 39.1°F3.9°C 66% 17.0 mph NW27.4 kmh NW 27.0 mph43.5 kmh 29.88 in1011.9 mb 0.00 in0.0 mm 0.00 in0.0 mm 0.00 in0.0 mm
02:02 AM 50.0°F10.0°C 39.1°F3.9°C 66% 17.0 mph NW27.4 kmh NW 27.0 mph43.5 kmh 29.88 in1011.9 mb 0.00 in0.0 mm 0.00 in0.0 mm 0.00 in0.0 mm
02:01 AM 49.8°F9.9°C 38.9°F3.8°C 66% 18.0 mph NW29.0 kmh NW 30.0 mph48.3 kmh 29.88 in1011.9 mb 0.00 in0.0 mm 0.00 in0.0 mm 0.00 in0.0 mm
02:00 AM 50.2°F10.1°C 39.3°F4.1°C 66% 17.0 mph NW27.4 kmh NW 30.0 mph48.3 kmh 29.88 in1011.9 mb 0.00 in0.0 mm 0.00 in0.0 mm 0.00 in0.0 mm
01:59 AM 50.2°F10.1°C 38.9°F3.8°C 65% 18.0 mph NW29.0 kmh NW 30.0 mph48.3 kmh 29.88 in1011.9 mb 0.00 in0.0 mm 0.00 in0.0 mm 0.00 in0.0 mm
01:58 AM 50.2°F10.1°C 38.9°F3.8°C 65% 19.0 mph NW30.6 kmh NW 30.0 mph48.3 kmh 29.88 in1011.9 mb 0.00 in0.0 mm 0.00 in0.0 mm 0.00 in0.0 mm
01:57 AM 50.2°F10.1°C 38.9°F3.8°C 65% 19.0 mph NW30.6 kmh NW 30.0 mph48.3 kmh 29.88 in1011.9 mb 0.00 in0.0 mm 0.00 in0.0 mm 0.00 in0.0 mm
01:56 AM 50.2°F10.1°C 38.9°F3.8°C 65% 19.0 mph NW30.6 kmh NW 33.0 mph53.1 kmh 29.88 in1011.9 mb 0.00 in0.0 mm 0.00 in0.0 mm 0.00 in0.0 mm
01:55 AM 50.2°F10.1°C 38.9°F3.8°C 65% 20.0 mph NW32.2 kmh NW 33.0 mph53.1 kmh 29.89 in1012.2 mb 0.00 in0.0 mm 0.00 in0.0 mm 0.00 in0.0 mm
01:54 AM 50.2°F10.1°C 38.9°F3.8°C 65% 20.0 mph NW32.2 kmh NW 33.0 mph53.1 kmh 29.88 in1011.9 mb 0.00 in0.0 mm 0.00 in0.0 mm 0.00 in0.0 mm
01:53 AM 50.2°F10.1°C 38.9°F3.8°C 65% 20.0 mph NW32.2 kmh NW 33.0 mph53.1 kmh 29.89 in1012.2 mb 0.00 in0.0 mm 0.00 in0.0 mm 0.00 in0.0 mm
01:52 AM 50.2°F10.1°C 38.9°F3.8°C 65% 20.0 mph NW32.2 kmh NW 33.0 mph53.1 kmh 29.89 in1012.2 mb 0.00 in0.0 mm 0.00 in0.0 mm 0.00 in0.0 mm
01:51 AM 50.2°F10.1°C 38.9°F3.8°C 65% 19.0 mph NW30.6 kmh NW 33.0 mph53.1 kmh 29.89 in1012.2 mb 0.00 in0.0 mm 0.00 in0.0 mm 0.00 in0.0 mm
01:50 AM 50.4°F10.2°C 39.0°F3.9°C 65% 20.0 mph NW32.2 kmh NW 33.0 mph53.1 kmh 29.89 in1012.2 mb 0.00 in0.0 mm 0.00 in0.0 mm 0.00 in0.0 mm
01:49 AM 50.4°F10.2°C 39.0°F3.9°C 65% 20.0 mph NW32.2 kmh NW 33.0 mph53.1 kmh 29.88 in1011.9 mb 0.00 in0.0 mm 0.00 in0.0 mm 0.00 in0.0 mm
01:48 AM 50.4°F10.2°C 39.0°F3.9°C 65% 20.0 mph NW32.2 kmh NW 33.0 mph53.1 kmh 29.89 in1012.2 mb 0.00 in0.0 mm 0.00 in0.0 mm 0.00 in0.0 mm
01:47 AM 50.4°F10.2°C 39.0°F3.9°C 65% 20.0 mph NW32.2 kmh NW 33.0 mph53.1 kmh 29.89 in1012.2 mb 0.00 in0.0 mm 0.00 in0.0 mm 0.00 in0.0 mm
01:46 AM 50.4°F10.2°C 39.0°F3.9°C 65% 19.0 mph NW30.6 kmh NW 32.0 mph51.5 kmh 29.89 in1012.2 mb 0.00 in0.0 mm 0.00 in0.0 mm 0.00 in0.0 mm
01:45 AM 50.4°F10.2°C 39.0°F3.9°C 65% 18.0 mph NW29.0 kmh NW 32.0 mph51.5 kmh 29.89 in1012.2 mb 0.00 in0.0 mm 0.00 in0.0 mm 0.00 in0.0 mm
01:44 AM 50.4°F10.2°C 39.0°F3.9°C 65% 18.0 mph NW29.0 kmh NW 32.0 mph51.5 kmh 29.88 in1011.9 mb 0.00 in0.0 mm 0.00 in0.0 mm 0.00 in0.0 mm
01:43 AM 50.4°F10.2°C 39.0°F3.9°C 65% 18.0 mph NW29.0 kmh NW 32.0 mph51.5 kmh 29.89 in1012.2 mb 0.00 in0.0 mm 0.00 in0.0 mm 0.00 in0.0 mm
01:42 AM 50.4°F10.2°C 39.0°F3.9°C 65% 18.0 mph NW29.0 kmh NW 32.0 mph51.5 kmh 29.89 in1012.2 mb 0.00 in0.0 mm 0.00 in0.0 mm 0.00 in0.0 mm
01:41 AM 50.4°F10.2°C 38.6°F3.7°C 64% 18.0 mph NW29.0 kmh NW 32.0 mph51.5 kmh 29.89 in1012.2 mb 0.00 in0.0 mm 0.00 in0.0 mm 0.00 in0.0 mm
01:40 AM 50.5°F10.3°C 38.8°F3.8°C 64% 18.0 mph NW29.0 kmh NW 32.0 mph51.5 kmh 29.89 in1012.2 mb 0.00 in0.0 mm 0.00 in0.0 mm 0.00 in0.0 mm
01:39 AM 50.5°F10.3°C 38.8°F3.8°C 64% 17.0 mph NW27.4 kmh NW 32.0 mph51.5 kmh 29.89 in1012.2 mb 0.00 in0.0 mm 0.00 in0.0 mm 0.00 in0.0 mm
01:38 AM 50.5°F10.3°C 38.8°F3.8°C 64% 17.0 mph NW27.4 kmh NW 31.0 mph49.9 kmh 29.89 in1012.2 mb 0.00 in0.0 mm 0.00 in0.0 mm 0.00 in0.0 mm
01:37 AM 50.5°F10.3°C 38.8°F3.8°C 64% 16.0 mph NW25.7 kmh NW 31.0 mph49.9 kmh 29.89 in1012.2 mb 0.00 in0.0 mm 0.00 in0.0 mm 0.00 in0.0 mm
01:36 AM 50.5°F10.3°C 38.8°F3.8°C 64% 17.0 mph NW27.4 kmh NW 32.0 mph51.5 kmh 29.89 in1012.2 mb 0.00 in0.0 mm 0.00 in0.0 mm 0.00 in0.0 mm
01:35 AM 50.5°F10.3°C 38.8°F3.8°C 64% 18.0 mph NW29.0 kmh NW 32.0 mph51.5 kmh 29.89 in1012.2 mb 0.00 in0.0 mm 0.00 in0.0 mm 0.00 in0.0 mm
01:34 AM 50.7°F10.4°C 39.0°F3.9°C 64% 18.0 mph NW29.0 kmh NW 32.0 mph51.5 kmh 29.89 in1012.2 mb 0.00 in0.0 mm 0.00 in0.0 mm 0.00 in0.0 mm
01:33 AM 50.7°F10.4°C 39.0°F3.9°C 64% 18.0 mph NW29.0 kmh NW 32.0 mph51.5 kmh 29.89 in1012.2 mb 0.00 in0.0 mm 0.00 in0.0 mm 0.00 in0.0 mm
01:32 AM 50.7°F10.4°C 38.6°F3.7°C 63% 18.0 mph NW29.0 kmh NW 32.0 mph51.5 kmh 29.89 in1012.2 mb 0.00 in0.0 mm 0.00 in0.0 mm 0.00 in0.0 mm
01:31 AM 50.9°F10.5°C 38.7°F3.7°C 63% 18.0 mph NW29.0 kmh NW 32.0 mph51.5 kmh 29.89 in1012.2 mb 0.00 in0.0 mm 0.00 in0.0 mm 0.00 in0.0 mm
01:30 AM 51.1°F10.6°C 38.9°F3.8°C 63% 18.0 mph NW29.0 kmh NW 32.0 mph51.5 kmh 29.89 in1012.2 mb 0.00 in0.0 mm 0.00 in0.0 mm 0.00 in0.0 mm
01:29 AM 51.1°F10.6°C 38.5°F3.6°C 62% 18.0 mph NW29.0 kmh NW 32.0 mph51.5 kmh 29.89 in1012.2 mb 0.00 in0.0 mm 0.00 in0.0 mm 0.00 in0.0 mm
01:28 AM 51.1°F10.6°C 38.5°F3.6°C 62% 18.0 mph NW29.0 kmh NW 32.0 mph51.5 kmh 29.88 in1011.9 mb 0.00 in0.0 mm 0.00 in0.0 mm 0.00 in0.0 mm
01:27 AM 51.1°F10.6°C 38.5°F3.6°C 62% 18.0 mph NW29.0 kmh NW 32.0 mph51.5 kmh 29.89 in1012.2 mb 0.00 in0.0 mm 0.00 in0.0 mm 0.00 in0.0 mm
01:26 AM 51.1°F10.6°C 38.5°F3.6°C 62% 18.0 mph NW29.0 kmh NW 32.0 mph51.5 kmh 29.89 in1012.2 mb 0.00 in0.0 mm 0.00 in0.0 mm 0.00 in0.0 mm
01:25 AM 51.3°F10.7°C 38.7°F3.7°C 62% 18.0 mph NW29.0 kmh NW 32.0 mph51.5 kmh 29.89 in1012.2 mb 0.00 in0.0 mm 0.00 in0.0 mm 0.00 in0.0 mm
01:24 AM 51.1°F10.6°C 38.5°F3.6°C 62% 19.0 mph NW30.6 kmh NW 32.0 mph51.5 kmh 29.89 in1012.2 mb 0.00 in0.0 mm 0.00 in0.0 mm 0.00 in0.0 mm
01:23 AM 51.3°F10.7°C 38.7°F3.7°C 62% 19.0 mph NW30.6 kmh NW 32.0 mph51.5 kmh 29.89 in1012.2 mb 0.00 in0.0 mm 0.00 in0.0 mm 0.00 in0.0 mm
01:22 AM 51.3°F10.7°C 38.7°F3.7°C 62% 19.0 mph NW30.6 kmh NW 32.0 mph51.5 kmh 29.89 in1012.2 mb 0.00 in0.0 mm 0.00 in0.0 mm 0.00 in0.0 mm
01:21 AM 51.3°F10.7°C 38.7°F3.7°C 62% 19.0 mph NW30.6 kmh NW 32.0 mph51.5 kmh 29.89 in1012.2 mb 0.00 in0.0 mm 0.00 in0.0 mm 0.00 in0.0 mm
01:20 AM 51.3°F10.7°C 38.7°F3.7°C 62% 18.0 mph NW29.0 kmh NW 31.0 mph49.9 kmh 29.89 in1012.2 mb 0.00 in0.0 mm 0.00 in0.0 mm 0.00 in0.0 mm
01:19 AM 51.3°F10.7°C 38.3°F3.5°C 61% 19.0 mph NW30.6 kmh NW 31.0 mph49.9 kmh 29.89 in1012.2 mb 0.00 in0.0 mm 0.00 in0.0 mm 0.00 in0.0 mm
01:18 AM 51.1°F10.6°C 38.5°F3.6°C 62% 19.0 mph NW30.6 kmh NW 31.0 mph49.9 kmh 29.89 in1012.2 mb 0.00 in0.0 mm 0.00 in0.0 mm 0.00 in0.0 mm
01:17 AM 51.1°F10.6°C 38.5°F3.6°C 62% 19.0 mph NW30.6 kmh NW 32.0 mph51.5 kmh 29.89 in1012.2 mb 0.00 in0.0 mm 0.00 in0.0 mm 0.00 in0.0 mm
01:16 AM 51.1°F10.6°C 38.5°F3.6°C 62% 20.0 mph NW32.2 kmh NW 33.0 mph53.1 kmh 29.89 in1012.2 mb 0.00 in0.0 mm 0.00 in0.0 mm 0.00 in0.0 mm
01:15 AM 51.1°F10.6°C 38.5°F3.6°C 62% 20.0 mph NW32.2 kmh NW 33.0 mph53.1 kmh 29.89 in1012.2 mb 0.00 in0.0 mm 0.00 in0.0 mm 0.00 in0.0 mm
01:14 AM 50.9°F10.5°C 38.3°F3.5°C 62% 19.0 mph NW30.6 kmh NW 33.0 mph53.1 kmh 29.89 in1012.2 mb 0.00 in0.0 mm 0.00 in0.0 mm 0.00 in0.0 mm
01:13 AM 50.9°F10.5°C 38.3°F3.5°C 62% 18.0 mph NW29.0 kmh NW 33.0 mph53.1 kmh 29.89 in1012.2 mb 0.00 in0.0 mm 0.00 in0.0 mm 0.00 in0.0 mm
01:12 AM 51.1°F10.6°C 38.9°F3.8°C 63% 18.0 mph NW29.0 kmh NW 33.0 mph53.1 kmh 29.89 in1012.2 mb 0.00 in0.0 mm 0.00 in0.0 mm 0.00 in0.0 mm
01:11 AM 51.1°F10.6°C 38.5°F3.6°C 62% 19.0 mph NW30.6 kmh NW 33.0 mph53.1 kmh 29.89 in1012.2 mb 0.00 in0.0 mm 0.00 in0.0 mm 0.00 in0.0 mm
01:10 AM 51.1°F10.6°C 38.9°F3.8°C 63% 18.0 mph NW29.0 kmh NW 33.0 mph53.1 kmh 29.89 in1012.2 mb 0.00 in0.0 mm 0.00 in0.0 mm 0.00 in0.0 mm
01:09 AM 51.1°F10.6°C 38.9°F3.8°C 63% 19.0 mph NW30.6 kmh NW 33.0 mph53.1 kmh 29.89 in1012.2 mb 0.00 in0.0 mm 0.00 in0.0 mm 0.00 in0.0 mm
01:08 AM 51.1°F10.6°C 38.9°F3.8°C 63% 19.0 mph NW30.6 kmh NW 33.0 mph53.1 kmh 29.89 in1012.2 mb 0.00 in0.0 mm 0.00 in0.0 mm 0.00 in0.0 mm
01:07 AM 51.1°F10.6°C 38.9°F3.8°C 63% 18.0 mph NW29.0 kmh NW 33.0 mph53.1 kmh 29.89 in1012.2 mb 0.00 in0.0 mm 0.00 in0.0 mm 0.00 in0.0 mm
01:06 AM 50.9°F10.5°C 38.7°F3.7°C 63% 18.0 mph NW29.0 kmh NW 33.0 mph53.1 kmh 29.89 in1012.2 mb 0.00 in0.0 mm 0.00 in0.0 mm 0.00 in0.0 mm
01:05 AM 51.1°F10.6°C 38.9°F3.8°C 63% 18.0 mph NW29.0 kmh NW 31.0 mph49.9 kmh 29.89 in1012.2 mb 0.00 in0.0 mm 0.00 in0.0 mm 0.00 in0.0 mm
01:04 AM 51.1°F10.6°C 38.9°F3.8°C 63% 19.0 mph NW30.6 kmh NW 31.0 mph49.9 kmh 29.89 in1012.2 mb 0.00 in0.0 mm 0.00 in0.0 mm 0.00 in0.0 mm
01:03 AM 51.1°F10.6°C 38.9°F3.8°C 63% 19.0 mph NW30.6 kmh NW 31.0 mph49.9 kmh 29.89 in1012.2 mb 0.00 in0.0 mm 0.00 in0.0 mm 0.00 in0.0 mm
01:02 AM 51.1°F10.6°C 38.9°F3.8°C 63% 19.0 mph NW30.6 kmh NW 31.0 mph49.9 kmh 29.90 in1012.5 mb 0.00 in0.0 mm 0.00 in0.0 mm 0.00 in0.0 mm
01:01 AM 51.1°F10.6°C 38.9°F3.8°C 63% 20.0 mph NW32.2 kmh NW 35.0 mph56.3 kmh 29.89 in1012.2 mb 0.00 in0.0 mm 0.00 in0.0 mm 0.00 in0.0 mm
01:00 AM 51.1°F10.6°C 38.9°F3.8°C 63% 20.0 mph NW32.2 kmh NW 35.0 mph56.3 kmh 29.89 in1012.2 mb 0.00 in0.0 mm 0.00 in0.0 mm 0.00 in0.0 mm
12:59 AM 51.1°F10.6°C 38.9°F3.8°C 63% 20.0 mph NW32.2 kmh NW 35.0 mph56.3 kmh 29.89 in1012.2 mb 0.00 in0.0 mm 0.00 in0.0 mm 0.00 in0.0 mm
12:58 AM 51.1°F10.6°C 38.9°F3.8°C 63% 19.0 mph NW30.6 kmh NW 35.0 mph56.3 kmh 29.89 in1012.2 mb 0.00 in0.0 mm 0.00 in0.0 mm 0.00 in0.0 mm
12:57 AM 51.1°F10.6°C 38.9°F3.8°C 63% 19.0 mph NW30.6 kmh NW 35.0 mph56.3 kmh 29.89 in1012.2 mb 0.00 in0.0 mm 0.00 in0.0 mm 0.00 in0.0 mm
12:56 AM 51.1°F10.6°C 38.9°F3.8°C 63% 19.0 mph NW30.6 kmh NW 35.0 mph56.3 kmh 29.90 in1012.5 mb 0.00 in0.0 mm 0.00 in0.0 mm 0.00 in0.0 mm
12:55 AM 51.1°F10.6°C 38.9°F3.8°C 63% 19.0 mph NW30.6 kmh NW 35.0 mph56.3 kmh 29.90 in1012.5 mb 0.00 in0.0 mm 0.00 in0.0 mm 0.00 in0.0 mm
12:54 AM 51.1°F10.6°C 39.3°F4.1°C 64% 19.0 mph NW30.6 kmh NW 35.0 mph56.3 kmh 29.90 in1012.5 mb 0.00 in0.0 mm 0.00 in0.0 mm 0.00 in0.0 mm
12:53 AM 51.1°F10.6°C 38.9°F3.8°C 63% 18.0 mph NW29.0 kmh NW 35.0 mph56.3 kmh 29.90 in1012.5 mb 0.00 in0.0 mm 0.00 in0.0 mm 0.00 in0.0 mm
12:52 AM 51.1°F10.6°C 38.9°F3.8°C 63% 18.0 mph NW29.0 kmh NW 35.0 mph56.3 kmh 29.89 in1012.2 mb 0.00 in0.0 mm 0.00 in0.0 mm 0.00 in0.0 mm
12:51 AM 50.9°F10.5°C 39.1°F3.9°C 64% 17.0 mph NW27.4 kmh NW 28.0 mph45.1 kmh 29.90 in1012.5 mb 0.00 in0.0 mm 0.00 in0.0 mm 0.00 in0.0 mm
12:50 AM 50.9°F10.5°C 39.1°F3.9°C 64% 16.0 mph NW25.7 kmh NW 28.0 mph45.1 kmh 29.90 in1012.5 mb 0.00 in0.0 mm 0.00 in0.0 mm 0.00 in0.0 mm
12:49 AM 50.7°F10.4°C 39.0°F3.9°C 64% 16.0 mph NW25.7 kmh NW 28.0 mph45.1 kmh 29.90 in1012.5 mb 0.00 in0.0 mm 0.00 in0.0 mm 0.00 in0.0 mm
12:48 AM 50.7°F10.4°C 39.0°F3.9°C 64% 16.0 mph NW25.7 kmh NW 28.0 mph45.1 kmh 29.90 in1012.5 mb 0.00 in0.0 mm 0.00 in0.0 mm 0.00 in0.0 mm
12:47 AM 50.7°F10.4°C 39.0°F3.9°C 64% 15.0 mph NW24.1 kmh NW 25.0 mph40.2 kmh 29.90 in1012.5 mb 0.00 in0.0 mm 0.00 in0.0 mm 0.00 in0.0 mm
12:46 AM 50.7°F10.4°C 39.0°F3.9°C 64% 16.0 mph NW25.7 kmh NW 29.0 mph46.7 kmh 29.90 in1012.5 mb 0.00 in0.0 mm 0.00 in0.0 mm 0.00 in0.0 mm
12:45 AM 50.7°F10.4°C 39.0°F3.9°C 64% 16.0 mph NW25.7 kmh NW 30.0 mph48.3 kmh 29.90 in1012.5 mb 0.00 in0.0 mm 0.00 in0.0 mm 0.00 in0.0 mm
12:44 AM 50.9°F10.5°C 39.1°F3.9°C 64% 16.0 mph NW25.7 kmh NW 32.0 mph51.5 kmh 29.90 in1012.5 mb 0.00 in0.0 mm 0.00 in0.0 mm 0.00 in0.0 mm
12:43 AM 50.9°F10.5°C 39.1°F3.9°C 64% 16.0 mph NW25.7 kmh NW 32.0 mph51.5 kmh 29.90 in1012.5 mb 0.00 in0.0 mm 0.00 in0.0 mm 0.00 in0.0 mm
12:42 AM 51.1°F10.6°C 39.3°F4.1°C 64% 16.0 mph NW25.7 kmh NW 32.0 mph51.5 kmh 29.90 in1012.5 mb 0.00 in0.0 mm 0.00 in0.0 mm 0.00 in0.0 mm
12:41 AM 51.1°F10.6°C 39.3°F4.1°C 64% 17.0 mph NW27.4 kmh NW 32.0 mph51.5 kmh 29.90 in1012.5 mb 0.00 in0.0 mm 0.00 in0.0 mm 0.00 in0.0 mm
12:40 AM 51.1°F10.6°C 39.3°F4.1°C 64% 17.0 mph NW27.4 kmh NW 32.0 mph51.5 kmh 29.91 in1012.9 mb 0.00 in0.0 mm 0.00 in0.0 mm 0.00 in0.0 mm
12:39 AM 51.1°F10.6°C 39.3°F4.1°C 64% 18.0 mph NW29.0 kmh NW 32.0 mph51.5 kmh 29.90 in1012.5 mb 0.00 in0.0 mm 0.00 in0.0 mm 0.00 in0.0 mm
12:38 AM 51.1°F10.6°C 39.3°F4.1°C 64% 18.0 mph NW29.0 kmh NW 32.0 mph51.5 kmh 29.90 in1012.5 mb 0.00 in0.0 mm 0.00 in0.0 mm 0.00 in0.0 mm
12:37 AM 50.9°F10.5°C 39.1°F3.9°C 64% 19.0 mph NW30.6 kmh NW 32.0 mph51.5 kmh 29.90 in1012.5 mb 0.00 in0.0 mm 0.00 in0.0 mm 0.00 in0.0 mm
12:36 AM 50.9°F10.5°C 39.1°F3.9°C 64% 18.0 mph NW29.0 kmh NW 33.0 mph53.1 kmh 29.90 in1012.5 mb 0.00 in0.0 mm 0.00 in0.0 mm 0.00 in0.0 mm
12:35 AM 50.9°F10.5°C 39.1°F3.9°C 64% 18.0 mph NW29.0 kmh NW 33.0 mph53.1 kmh 29.90 in1012.5 mb 0.00 in0.0 mm 0.00 in0.0 mm 0.00 in0.0 mm
12:34 AM 50.9°F10.5°C 39.1°F3.9°C 64% 18.0 mph NW29.0 kmh NW 33.0 mph53.1 kmh 29.90 in1012.5 mb 0.00 in0.0 mm 0.00 in0.0 mm 0.00 in0.0 mm
12:33 AM 50.9°F10.5°C 39.1°F3.9°C 64% 18.0 mph NW29.0 kmh NW 33.0 mph53.1 kmh 29.90 in1012.5 mb 0.00 in0.0 mm 0.00 in0.0 mm 0.00 in0.0 mm
12:32 AM 51.1°F10.6°C 39.3°F4.1°C 64% 19.0 mph NW30.6 kmh NW 33.0 mph53.1 kmh 29.90 in1012.5 mb 0.00 in0.0 mm 0.00 in0.0 mm 0.00 in0.0 mm
12:31 AM 51.1°F10.6°C 39.3°F4.1°C 64% 19.0 mph NW30.6 kmh NW 33.0 mph53.1 kmh 29.90 in1012.5 mb 0.00 in0.0 mm 0.00 in0.0 mm 0.00 in0.0 mm
12:30 AM 50.9°F10.5°C 39.1°F3.9°C 64% 19.0 mph NW30.6 kmh NW 33.0 mph53.1 kmh 29.90 in1012.5 mb 0.00 in0.0 mm 0.00 in0.0 mm 0.00 in0.0 mm
12:29 AM 50.9°F10.5°C 39.1°F3.9°C 64% 19.0 mph NW30.6 kmh NW 33.0 mph53.1 kmh 29.90 in1012.5 mb 0.00 in0.0 mm 0.00 in0.0 mm 0.00 in0.0 mm
12:28 AM 50.9°F10.5°C 39.1°F3.9°C 64% 18.0 mph NW29.0 kmh NW 33.0 mph53.1 kmh 29.90 in1012.5 mb 0.00 in0.0 mm 0.00 in0.0 mm 0.00 in0.0 mm
12:27 AM 50.7°F10.4°C 39.0°F3.9°C 64% 18.0 mph NW29.0 kmh NW 33.0 mph53.1 kmh 29.90 in1012.5 mb 0.00 in0.0 mm 0.00 in0.0 mm 0.00 in0.0 mm
12:26 AM 50.7°F10.4°C 39.4°F4.1°C 65% 18.0 mph NW29.0 kmh NW 31.0 mph49.9 kmh 29.90 in1012.5 mb 0.00 in0.0 mm 0.00 in0.0 mm 0.00 in0.0 mm
12:25 AM 50.7°F10.4°C 39.4°F4.1°C 65% 18.0 mph NW29.0 kmh NW 31.0 mph49.9 kmh 29.90 in1012.5 mb 0.00 in0.0 mm 0.00 in0.0 mm 0.00 in0.0 mm
12:24 AM 50.7°F10.4°C 39.4°F4.1°C 65% 19.0 mph NW30.6 kmh NW 32.0 mph51.5 kmh 29.91 in1012.9 mb 0.00 in0.0 mm 0.00 in0.0 mm 0.00 in0.0 mm
12:23 AM 50.7°F10.4°C 39.0°F3.9°C 64% 19.0 mph NW30.6 kmh NW 32.0 mph51.5 kmh 29.90 in1012.5 mb 0.00 in0.0 mm 0.00 in0.0 mm 0.00 in0.0 mm
12:22 AM 50.7°F10.4°C 39.4°F4.1°C 65% 19.0 mph NW30.6 kmh NW 32.0 mph51.5 kmh 29.90 in1012.5 mb 0.00 in0.0 mm 0.00 in0.0 mm 0.00 in0.0 mm
12:21 AM 50.9°F10.5°C 39.1°F3.9°C 64% 20.0 mph NW32.2 kmh NW 32.0 mph51.5 kmh 29.91 in1012.9 mb 0.00 in0.0 mm 0.00 in0.0 mm 0.00 in0.0 mm
12:20 AM 50.9°F10.5°C 39.5°F4.2°C 65% 19.0 mph NW30.6 kmh NW 32.0 mph51.5 kmh 29.90 in1012.5 mb 0.00 in0.0 mm 0.00 in0.0 mm 0.00 in0.0 mm
12:19 AM 50.9°F10.5°C 39.1°F3.9°C 64% 20.0 mph NW32.2 kmh NW 32.0 mph51.5 kmh 29.91 in1012.9 mb 0.00 in0.0 mm 0.00 in0.0 mm 0.00 in0.0 mm
12:18 AM 50.9°F10.5°C 39.5°F4.2°C 65% 21.0 mph NW33.8 kmh NW 32.0 mph51.5 kmh 29.91 in1012.9 mb 0.00 in0.0 mm 0.00 in0.0 mm 0.00 in0.0 mm
12:17 AM 51.1°F10.6°C 39.7°F4.3°C 65% 21.0 mph NW33.8 kmh NW 32.0 mph51.5 kmh 29.90 in1012.5 mb 0.00 in0.0 mm 0.00 in0.0 mm 0.00 in0.0 mm
12:16 AM 51.1°F10.6°C 39.3°F4.1°C 64% 21.0 mph NW33.8 kmh NW 32.0 mph51.5 kmh 29.90 in1012.5 mb 0.00 in0.0 mm 0.00 in0.0 mm 0.00 in0.0 mm
12:15 AM 51.1°F10.6°C 39.3°F4.1°C 64% 21.0 mph NW33.8 kmh NW 32.0 mph51.5 kmh 29.91 in1012.9 mb 0.00 in0.0 mm 0.00 in0.0 mm 0.00 in0.0 mm
12:14 AM 51.1°F10.6°C 39.3°F4.1°C 64% 21.0 mph NW33.8 kmh NW 32.0 mph51.5 kmh 29.91 in1012.9 mb 0.00 in0.0 mm 0.00 in0.0 mm 0.00 in0.0 mm
12:13 AM 51.1°F10.6°C 39.7°F4.3°C 65% 21.0 mph NW33.8 kmh NW 36.0 mph57.9 kmh 29.90 in1012.5 mb 0.00 in0.0 mm 0.00 in0.0 mm 0.00 in0.0 mm
12:12 AM 51.1°F10.6°C 39.7°F4.3°C 65% 21.0 mph NW33.8 kmh NW 36.0 mph57.9 kmh 29.90 in1012.5 mb 0.00 in0.0 mm 0.00 in0.0 mm 0.00 in0.0 mm
12:11 AM 51.1°F10.6°C 39.7°F4.3°C 65% 21.0 mph NW33.8 kmh NW 36.0 mph57.9 kmh 29.90 in1012.5 mb 0.00 in0.0 mm 0.00 in0.0 mm 0.00 in0.0 mm
12:10 AM 50.7°F10.4°C 39.4°F4.1°C 65% 22.0 mph NW35.4 kmh NW 47.0 mph75.6 kmh 29.90 in1012.5 mb 0.00 in0.0 mm 0.00 in0.0 mm 0.00 in0.0 mm
12:09 AM 50.7°F10.4°C 39.4°F4.1°C 65% 22.0 mph NW35.4 kmh NW 47.0 mph75.6 kmh 29.90 in1012.5 mb 0.00 in0.0 mm 0.00 in0.0 mm 0.00 in0.0 mm
12:08 AM 50.9°F10.5°C 39.5°F4.2°C 65% 22.0 mph NW35.4 kmh NW 47.0 mph75.6 kmh 29.90 in1012.5 mb 0.00 in0.0 mm 0.00 in0.0 mm 0.00 in0.0 mm
12:07 AM 50.9°F10.5°C 39.5°F4.2°C 65% 23.0 mph NW37.0 kmh NW 47.0 mph75.6 kmh 29.90 in1012.5 mb 0.00 in0.0 mm 0.00 in0.0 mm 0.00 in0.0 mm
12:06 AM 50.9°F10.5°C 39.5°F4.2°C 65% 23.0 mph NW37.0 kmh NW 47.0 mph75.6 kmh 29.90 in1012.5 mb 0.00 in0.0 mm 0.00 in0.0 mm 0.00 in0.0 mm
12:05 AM 51.1°F10.6°C 39.7°F4.3°C 65% 23.0 mph NW37.0 kmh NW 47.0 mph75.6 kmh 29.91 in1012.9 mb 0.00 in0.0 mm 0.00 in0.0 mm 0.00 in0.0 mm
12:04 AM 51.1°F10.6°C 39.7°F4.3°C 65% 23.0 mph NW37.0 kmh NW 47.0 mph75.6 kmh 29.90 in1012.5 mb 0.00 in0.0 mm 0.00 in0.0 mm 0.00 in0.0 mm
12:03 AM 51.1°F10.6°C 39.7°F4.3°C 65% 22.0 mph NW35.4 kmh NW 47.0 mph75.6 kmh 29.90 in1012.5 mb 0.00 in0.0 mm 0.00 in0.0 mm 0.00 in0.0 mm
12:02 AM 51.1°F10.6°C 39.7°F4.3°C 65% 23.0 mph NW37.0 kmh NW 47.0 mph75.6 kmh 29.90 in1012.5 mb 0.00 in0.0 mm 0.00 in0.0 mm 0.00 in0.0 mm
12:01 AM 51.1°F10.6°C 39.7°F4.3°C 65% 23.0 mph NW37.0 kmh NW 47.0 mph75.6 kmh 29.90 in1012.5 mb 0.00 in0.0 mm 0.00 in0.0 mm 0.00 in0.0 mm
12:00 AM 51.1°F10.6°C 39.7°F4.3°C 65% 22.0 mph NW35.4 kmh NW 36.0 mph57.9 kmh 29.90 in1012.5 mb 0.00 in0.0 mm 0.00 in0.0 mm 0.00 in0.0 mm